地図

経路データ

SID SEASON NUMBER BASIN SUBBASIN NAME ISO_TIME NATURE LAT LON WMO_WIND WMO_PRES WMO_AGENCY TRACK_TYPE DIST2LAND LANDFALL IFLAG USA_AGENCY USA_ATCF_ID USA_LAT USA_LON USA_RECORD USA_STATUS USA_WIND USA_PRES USA_SSHS USA_R34_NE USA_R34_SE USA_R34_SW USA_R34_NW USA_R50_NE USA_R50_SE USA_R50_SW USA_R50_NW USA_R64_NE USA_R64_SE USA_R64_SW USA_R64_NW USA_POCI USA_ROCI USA_RMW USA_EYE TOKYO_LAT TOKYO_LON TOKYO_GRADE TOKYO_WIND TOKYO_PRES TOKYO_R50_DIR TOKYO_R50_LONG TOKYO_R50_SHORT TOKYO_R30_DIR TOKYO_R30_LONG TOKYO_R30_SHORT TOKYO_LAND CMA_LAT CMA_LON CMA_CAT CMA_WIND CMA_PRES HKO_LAT HKO_LON HKO_CAT HKO_WIND HKO_PRES NEWDELHI_LAT NEWDELHI_LON NEWDELHI_GRADE NEWDELHI_WIND NEWDELHI_PRES NEWDELHI_CI NEWDELHI_DP NEWDELHI_POCI REUNION_LAT REUNION_LON REUNION_TYPE REUNION_WIND REUNION_PRES REUNION_TNUM REUNION_CI REUNION_RMW REUNION_R34_NE REUNION_R34_SE REUNION_R34_SW REUNION_R34_NW REUNION_R50_NE REUNION_R50_SE REUNION_R50_SW REUNION_R50_NW REUNION_R64_NE REUNION_R64_SE REUNION_R64_SW REUNION_R64_NW BOM_LAT BOM_LON BOM_TYPE BOM_WIND BOM_PRES BOM_TNUM BOM_CI BOM_RMW BOM_R34_NE BOM_R34_SE BOM_R34_SW BOM_R34_NW BOM_R50_NE BOM_R50_SE BOM_R50_SW BOM_R50_NW BOM_R64_NE BOM_R64_SE BOM_R64_SW BOM_R64_NW BOM_ROCI BOM_POCI BOM_EYE BOM_POS_METHOD BOM_PRES_METHOD NADI_LAT NADI_LON NADI_CAT NADI_WIND NADI_PRES WELLINGTON_LAT WELLINGTON_LON WELLINGTON_WIND WELLINGTON_PRES DS824_LAT DS824_LON DS824_STAGE DS824_WIND DS824_PRES TD9636_LAT TD9636_LON TD9636_STAGE TD9636_WIND TD9636_PRES TD9635_LAT TD9635_LON TD9635_WIND TD9635_PRES TD9635_ROCI NEUMANN_LAT NEUMANN_LON NEUMANN_CLASS NEUMANN_WIND NEUMANN_PRES MLC_LAT MLC_LON MLC_CLASS MLC_WIND MLC_PRES USA_GUST BOM_GUST BOM_GUST_PER REUNION_GUST REUNION_GUST_PER USA_SEAHGT USA_SEARAD_NE USA_SEARAD_SE USA_SEARAD_SW USA_SEARAD_NW STORM_SPEED STORM_DIR
1976214N19088 1976 83 NI BB NOT_NAMED 1976-08-01 00:00:00 TS 19.4000 87.6000 main 137 129 O________OO___ jtwc_io IO041976 19.4000 87.6000 -1 19.4000 87.6000 TC 25 19.4000 87.6000 1 3 345
1976214N19088 1976 83 NI BB NOT_NAMED 1976-08-01 03:00:00 TS 19.5429 87.5665 main 129 107 P________PP___ IO041976 19.5450 87.5875 -1 19.5450 87.5875 TC 25 19.5386 87.5243 1 3 338
1976214N19088 1976 83 NI BB NOT_NAMED 1976-08-01 06:00:00 TS 19.6973 87.4697 main 107 76 O________OP___ jtwc_io IO041976 19.7000 87.5000 -1 19.7000 87.5000 TC 25 19.6918 87.4090 1 4 319
1976214N19088 1976 83 NI BB NOT_NAMED 1976-08-01 09:00:00 TS 19.8763 87.2546 main 76 30 P________PP___ IO041976 19.8773 87.2748 -1 19.8773 87.2748 TC 25 19.8742 87.2142 1 7 307
1976214N19088 1976 83 NI BB NOT_NAMED 1976-08-01 12:00:00 TS 20.1000 86.9000 main 30 0 O________OO___ jtwc_io IO041976 20.1000 86.9000 -1 20.1000 86.9000 TC 25 20.1000 86.9000 1 9 303
1976214N19088 1976 83 NI BB NOT_NAMED 1976-08-01 15:00:00 TS 20.3822 86.4147 main 0 0 P________PP___ IO041976 20.3850 86.4025 -1 20.3850 86.4025 TC 25 20.3767 86.4392 1 12 300
1976214N19088 1976 83 NI BB NOT_NAMED 1976-08-01 18:00:00 TS 20.6952 85.8195 main 0 0 O________OP___ jtwc_io IO041976 20.7000 85.8000 -1 20.7000 85.8000 TC 25 20.6855 85.8585 1 13 298
1976214N19088 1976 83 NI BB NOT_NAMED 1976-08-01 21:00:00 TS 21.0053 85.1860 main 0 0 P________PP___ IO041976 21.0072 85.1798 -1 21.0072 85.1798 TC 25 21.0014 85.1984 1 14 296
1976214N19088 1976 83 NI BB NOT_NAMED 1976-08-02 00:00:00 TS 21.3000 84.5000 main 0 0 O________OO___ jtwc_io IO041976 21.3000 84.5000 -1 21.3000 84.5000 TC 25 21.3000 84.5000 1 15 293
1976214N19088 1976 83 NI BB NOT_NAMED 1976-08-02 03:00:00 TS 21.5648 83.7506 main 0 0 P________PP___ IO041976 21.5650 83.7499 -1 21.5650 83.7499 TC 25 21.5643 83.7521 1 15 290
1976214N19088 1976 83 NI BB NOT_NAMED 1976-08-02 06:00:00 TS 21.8016 82.9961 main 0 0 O________OP___ jtwc_io IO041976 21.8000 83.0000 -1 21.8000 83.0000 TC 25 21.8047 82.9883 1 14 288
1976214N19088 1976 83 NI BB NOT_NAMED 1976-08-02 09:00:00 TS 22.0209 82.2768 main 0 0 P________PP___ IO041976 22.0226 82.2750 -1 22.0226 82.2750 TC 25 22.0176 82.2803 1 13 288
1976214N19088 1976 83 NI BB NOT_NAMED 1976-08-02 12:00:00 TS 22.2000 81.7000 main 0 0 O________OO___ jtwc_io IO041976 22.2000 81.7000 -1 22.2000 81.7000 TC 25 22.2000 81.7000 1 9 289
1976214N19088 1976 83 NI BB NOT_NAMED 1976-08-02 15:00:00 TS 22.3111 81.3697 main 0 0 P________PP___ IO041976 22.3071 81.3822 -1 22.3071 81.3822 TC 25 22.3193 81.3449 1 5 293
1976214N19088 1976 83 NI BB NOT_NAMED 1976-08-02 18:00:00 TS 22.4059 81.1734 main 0 0 O________OP___ jtwc_io IO041976 22.4000 81.2000 -1 22.4000 81.2000 TC 25 22.4177 81.1203 1 4 301
1976214N19088 1976 83 NI BB NOT_NAMED 1976-08-02 21:00:00 TS 22.5240 80.9918 main 0 0 P________PP___ IO041976 22.5199 81.0073 -1 22.5199 81.0073 TC 25 22.5323 80.9607 1 5 311
1976214N19088 1976 83 NI BB NOT_NAMED 1976-08-03 00:00:00 TS 22.7000 80.8000 main 0 0 O________OO___ jtwc_io IO041976 22.7000 80.8000 -1 22.7000 80.8000 TC 25 22.7000 80.8000 1 6 315
1976214N19088 1976 83 NI BB NOT_NAMED 1976-08-03 03:00:00 TS 22.9774 80.5064 main 0 0 P________PP___ IO041976 22.9701 80.5076 -1 22.9701 80.5076 TC 25 22.9922 80.5039 1 8 318
1976214N19088 1976 83 NI BB NOT_NAMED 1976-08-03 06:00:00 TS 23.3118 80.1997 main 0 0 O________OP___ jtwc_io IO041976 23.3000 80.2000 -1 23.3000 80.2000 TC 25 23.3355 80.1991 1 9 322
1976214N19088 1976 83 NI BB NOT_NAMED 1976-08-03 09:00:00 TS 23.6720 79.9199 main 0 0 P________PP___ IO041976 23.6650 79.9201 -1 23.6650 79.9201 TC 25 23.6860 79.9195 1 8 326
1976214N19088 1976 83 NI BB NOT_NAMED 1976-08-03 12:00:00 TS 24.0000 79.7000 main 0 0 O________OO___ jtwc_io IO041976 24.0000 79.7000 -1 24.0000 79.7000 TC 25 24.0000 79.7000 1 7 330
1976214N19088 1976 83 NI BB NOT_NAMED 1976-08-03 15:00:00 TS 24.2349 79.5635 main 0 0 P________PP___ IO041976 24.2299 79.5623 -1 24.2299 79.5623 TC 25 24.2447 79.5660 1 5 336
1976214N19088 1976 83 NI BB NOT_NAMED 1976-08-03 18:00:00 TS 24.4099 79.5013 main 0 0 O________OP___ jtwc_io IO041976 24.4000 79.5000 -1 24.4000 79.5000 TC 25 24.4296 79.5038 1 3 347
1976214N19088 1976 83 NI BB NOT_NAMED 1976-08-03 21:00:00 TS 24.5599 79.4883 main 0 0 P________PP___ IO041976 24.5525 79.4875 -1 24.5525 79.4875 TC 25 24.5748 79.4898 1 3 356
1976214N19088 1976 83 NI BB NOT_NAMED 1976-08-04 00:00:00 TS 24.7000 79.5000 main 0 O________OO___ jtwc_io IO041976 24.7000 79.5000 -1 24.7000 79.5000 TC 25 24.7000 79.5000 6 3 11

IBTrACS Databaseについて

本データベースは、米国NOAAが公開する1842年以降の世界の熱帯低気圧のベストトラックデータアーカイブInternational Best Track Archive for Climate Stewardship (IBTrACS)を、ウェブで閲覧しやすい形式に変換したものです。

最終更新日:2021-12-03